This is the latest recevied weather packets stored in our database for station/object KM4KBD. If no packets are shown the sender has not sent any weather packets the latest 10 day(s).
| Time | Temp. | Humidity | Pressure | Rain* | Wind** | Luminosity | Snow |
|---|---|---|---|---|---|---|---|
| 1778167946 | 14.44° C | 58% | 1021.4 hPa | 0 mm | - | 671 W/m² | - |
| 1778167643 | 15° C | 51% | 1021.2 hPa | 0 mm | - | 664 W/m² | - |
| 1778167339 | 15.56° C | 46% | 1021.5 hPa | 0 mm | - | 653 W/m² | - |
| 1778167035 | 15.56° C | 53% | 1021.5 hPa | 0 mm | - | 646 W/m² | - |
| 1778166732 | 15° C | 51% | 1021.4 hPa | 0 mm | - | 634 W/m² | - |
| 1778166429 | 15.56° C | 50% | 1021.2 hPa | 0 mm | - | 622 W/m² | - |
| 1778166126 | 15° C | 52% | 1021.4 hPa | 0 mm | - | 610 W/m² | - |
| 1778165821 | 14.44° C | 56% | 1021.2 hPa | 0 mm | - | 601 W/m² | - |
| 1778165518 | 15° C | 54% | 1021.2 hPa | 0 mm | - | 591 W/m² | - |
| 1778165215 | 14.44° C | 53% | 1021.1 hPa | 0 mm | - | 576 W/m² | - |
| 1778164913 | 14.44° C | 54% | 1021 hPa | 0 mm | - | 566 W/m² | - |
| 1778164609 | 14.44° C | 53% | 1021.1 hPa | 0 mm | - | 555 W/m² | - |
| 1778164307 | 14.44° C | 52% | 1021.1 hPa | 0 mm | - | 540 W/m² | - |
| 1778164002 | 14.44° C | 54% | 1021.2 hPa | 0 mm | - | 529 W/m² | - |
| 1778163699 | 13.89° C | 56% | 1021.3 hPa | 0 mm | - | 515 W/m² | - |
| 1778163395 | 14.44° C | 54% | 1021.2 hPa | 0 mm | - | 502 W/m² | - |
| 1778163092 | 13.89° C | 55% | 1021.2 hPa | 0 mm | - | 489 W/m² | - |
| 1778162789 | 13.89° C | 56% | 1021.4 hPa | 0 mm | - | 477 W/m² | - |
| 1778162486 | 13.33° C | 59% | 1021.3 hPa | 0 mm | - | 464 W/m² | - |
| 1778162183 | 12.78° C | 58% | 1021.3 hPa | 0 mm | - | 451 W/m² | - |
| 1778161881 | 13.33° C | 57% | 1021 hPa | 0 mm | - | 437 W/m² | - |
| 1778161577 | 13.33° C | 59% | 1021.3 hPa | 0 mm | - | 421 W/m² | - |
| 1778161273 | 12.78° C | 61% | 1021.3 hPa | 0 mm | - | 409 W/m² | - |
| 1778160969 | 12.22° C | 62% | 1021.7 hPa | 0 mm | - | 390 W/m² | - |
| 1778160667 | 12.22° C | 62% | 1021.5 hPa | 0 mm | - | 375 W/m² | - |
* Rain latest hour (hover to see other rain measurements)
** Current wind speed in m/s (hover to see current wind gust speed)